createdAt,value
2019-04-22T00:00:37.258Z,6.27
2019-04-22T00:06:00.394Z,6.20
2019-04-22T00:11:18.499Z,6.33
2019-04-22T00:16:27.961Z,6.60
2019-04-22T00:21:32.013Z,6.00
2019-04-22T00:26:38.693Z,5.93
2019-04-22T00:31:40.391Z,6.50
2019-04-22T00:36:52.650Z,6.30
2019-04-22T00:41:57.056Z,6.30
2019-04-22T00:47:00.657Z,6.63
2019-04-22T00:52:09.317Z,6.97
2019-04-22T00:57:15.348Z,7.00
2019-04-22T01:02:27.979Z,6.80
2019-04-22T01:07:30.516Z,6.13
2019-04-22T01:12:42.197Z,6.07
2019-04-22T01:17:49.495Z,6.47
2019-04-22T01:22:47.753Z,7.07
2019-04-22T01:27:48.821Z,6.60
2019-04-22T01:32:43.219Z,6.13
2019-04-22T01:37:59.777Z,7.27
2019-04-22T01:43:16.889Z,6.70
2019-04-22T01:48:26.588Z,7.03
2019-04-22T01:53:33.727Z,6.37
2019-04-22T01:58:30.763Z,6.90
2019-04-22T02:03:46.707Z,6.80
2019-04-22T02:08:55.243Z,7.37
2019-04-22T02:13:56.718Z,7.90
2019-04-22T02:19:11.966Z,8.40
2019-04-22T02:24:13.333Z,8.07
2019-04-22T02:29:14.995Z,8.53
2019-04-22T02:39:34.478Z,8.97
2019-04-22T02:44:40.777Z,8.67
2019-04-22T02:49:47.166Z,9.37
2019-04-22T02:54:55.149Z,8.90
2019-04-22T03:00:07.440Z,9.70
2019-04-22T03:05:13.125Z,9.70
2019-04-22T03:10:24.594Z,9.40
2019-04-22T03:15:13.591Z,8.53
2019-04-22T03:20:42.669Z,9.03
2019-04-22T03:36:05.176Z,9.17
2019-04-22T03:41:15.303Z,9.43
2019-04-22T03:45:51.705Z,9.43
2019-04-22T03:51:22.309Z,9.60
2019-04-22T03:56:52.145Z,9.10
2019-04-22T04:01:30.468Z,9.13
2019-04-22T04:06:29.746Z,9.80
2019-04-22T04:11:43.289Z,9.20
2019-04-22T04:17:00.200Z,9.63
2019-04-22T04:21:48.841Z,9.80
2019-04-22T04:27:20.845Z,10.73
2019-04-22T04:32:20.725Z,10.40
2019-04-22T04:37:24.298Z,10.57
2019-04-22T04:42:26.033Z,9.63
2019-04-22T04:47:37.189Z,9.47
2019-04-22T04:52:38.665Z,8.60
2019-04-22T04:57:54.883Z,8.67
2019-04-22T05:02:48.915Z,8.10
2019-04-22T05:13:01.907Z,8.97
2019-04-22T05:17:58.111Z,8.10
2019-04-22T05:23:01.156Z,7.97
2019-04-22T05:28:05.028Z,8.60
2019-04-22T05:33:10.814Z,8.43
2019-04-22T05:38:53.477Z,8.47
2019-04-22T05:43:25.374Z,8.23
2019-04-22T05:48:37.331Z,9.00
2019-04-22T05:53:32.445Z,9.33
2019-04-22T05:58:50.058Z,9.33
2019-04-22T06:08:57.651Z,11.70
2019-04-22T06:14:02.299Z,9.63
2019-04-22T06:19:13.729Z,8.70
2019-04-22T06:24:23.607Z,10.93
2019-04-22T06:29:25.049Z,9.07
2019-04-22T06:39:36.935Z,9.23
2019-04-22T06:44:47.940Z,9.20
2019-04-22T06:49:49.270Z,8.87
2019-04-22T06:55:03.303Z,9.33
2019-04-22T07:00:08.290Z,9.17
2019-04-22T07:05:27.955Z,8.73
2019-04-22T07:10:28.624Z,8.03
2019-04-22T07:15:45.185Z,8.70
2019-04-22T07:20:41.646Z,8.17
2019-04-22T07:25:40.772Z,7.87
2019-04-22T07:30:46.079Z,7.50
2019-04-22T07:36:12.602Z,6.87
2019-04-22T07:40:56.275Z,5.13
2019-04-22T07:46:10.968Z,5.07
2019-04-22T07:51:26.846Z,6.70
2019-04-22T07:56:21.498Z,6.20
2019-04-22T08:01:29.616Z,5.90
2019-04-22T08:06:43.635Z,6.10
2019-04-22T08:11:52.240Z,5.80
2019-04-22T08:16:51.329Z,5.57
2019-04-22T08:22:00.003Z,4.50
2019-04-22T08:27:00.654Z,3.37
2019-04-22T08:32:05.024Z,4.13
2019-04-22T08:42:27.875Z,4.13
2019-04-22T08:47:31.187Z,4.50
2019-04-22T08:52:57.585Z,4.77
2019-04-22T08:58:06.774Z,4.93
2019-04-22T09:02:53.942Z,5.87
2019-04-22T09:08:02.089Z,5.80
2019-04-22T09:18:14.739Z,5.80
2019-04-22T09:23:24.260Z,6.50
2019-04-22T09:28:24.566Z,6.27
2019-04-22T09:33:31.314Z,7.70
2019-04-22T09:48:59.831Z,8.60
2019-04-22T09:54:12.480Z,9.73
2019-04-22T09:59:05.600Z,5.93
2019-04-22T10:04:27.582Z,5.70
2019-04-22T10:09:34.798Z,7.40
2019-04-22T10:14:28.958Z,9.07
2019-04-22T10:19:30.003Z,8.83
2019-04-22T10:24:39.343Z,8.77
2019-04-22T10:29:54.196Z,11.40
2019-04-22T10:34:38.742Z,15.43
2019-04-22T10:39:45.875Z,14.40
2019-04-22T10:44:46.155Z,7.93
2019-04-22T10:49:52.250Z,7.50
2019-04-22T10:54:57.315Z,6.53
2019-04-22T11:00:02.876Z,5.53
2019-04-22T11:05:08.490Z,4.67
2019-04-22T11:10:29.353Z,5.00
2019-04-22T11:15:20.033Z,5.00
2019-04-22T11:20:26.012Z,14.47
2019-04-22T11:25:31.918Z,10.90
2019-04-22T11:30:38.581Z,13.73
2019-04-22T11:35:43.870Z,7.83
2019-04-22T11:40:53.503Z,8.30
2019-04-22T11:45:57.521Z,5.50
2019-04-22T11:51:04.361Z,5.33
2019-04-22T11:56:09.380Z,5.93
2019-04-22T12:01:15.012Z,5.60
2019-04-22T12:06:20.021Z,5.60
2019-04-22T12:11:26.261Z,5.20
2019-04-22T12:16:31.654Z,5.93
2019-04-22T12:21:37.106Z,4.73
2019-04-22T12:26:42.404Z,4.77
2019-04-22T12:31:49.343Z,5.03
2019-04-22T12:36:54.548Z,7.87
2019-04-22T12:42:04.369Z,8.00
2019-04-22T12:47:12.744Z,5.13
2019-04-22T12:52:24.477Z,4.90
2019-04-22T12:57:23.025Z,9.00
2019-04-22T13:02:29.271Z,4.37
2019-04-22T13:07:35.643Z,7.10
2019-04-22T13:12:42.622Z,6.10
2019-04-22T13:18:02.335Z,5.50
2019-04-22T13:22:56.900Z,4.60
2019-04-22T13:28:02.984Z,6.43
2019-04-22T13:33:08.163Z,4.40
2019-04-22T13:38:13.231Z,5.00
2019-04-22T13:43:18.922Z,6.90
2019-04-22T13:48:46.946Z,14.87
2019-04-22T13:54:30.036Z,5.67
2019-04-22T13:58:54.072Z,6.70
2019-04-22T14:03:46.912Z,4.47
2019-04-22T14:08:53.408Z,4.90
2019-04-22T14:13:58.834Z,5.17
2019-04-22T14:19:03.685Z,4.20
2019-04-22T14:24:11.760Z,5.70
2019-04-22T14:29:15.734Z,6.20
2019-04-22T14:34:20.861Z,7.80
2019-04-22T14:39:28.067Z,18.97
2019-04-22T14:50:07.639Z,13.33
2019-04-22T14:54:58.488Z,10.27
2019-04-22T14:59:55.899Z,8.67
2019-04-22T15:05:00.834Z,13.30
2019-04-22T15:10:08.323Z,4.00
2019-04-22T15:15:15.568Z,5.70
2019-04-22T15:20:23.678Z,5.77
2019-04-22T15:25:30.485Z,4.90
2019-04-22T15:30:37.301Z,5.47
2019-04-22T15:35:43.270Z,10.87
2019-04-22T15:40:49.013Z,5.20
2019-04-22T15:45:54.858Z,5.40
2019-04-22T15:51:00.550Z,4.90
2019-04-22T15:56:06.371Z,5.77
2019-04-22T16:01:19.321Z,12.27
2019-04-22T16:06:17.963Z,4.70
2019-04-22T16:11:24.145Z,6.20
2019-04-22T16:16:30.537Z,5.23
2019-04-22T16:21:45.111Z,27.67
2019-04-22T16:26:44.511Z,10.40
2019-04-22T16:31:49.707Z,5.40
2019-04-22T16:36:54.674Z,5.43
2019-04-22T16:42:00.741Z,5.80
2019-04-22T16:47:05.813Z,20.47
2019-04-22T16:52:12.074Z,6.60
2019-04-22T16:57:17.841Z,7.13
2019-04-22T17:02:24.796Z,13.50
2019-04-22T17:07:31.915Z,31.77
2019-04-22T17:12:47.868Z,28.63
2019-04-22T17:17:45.308Z,11.83
2019-04-22T17:22:51.575Z,12.53
2019-04-22T17:27:57.368Z,13.00
2019-04-22T17:33:03.179Z,11.87
2019-04-22T17:38:16.650Z,13.73
2019-04-22T17:43:52.266Z,11.53
2019-04-22T17:48:49.093Z,10.23
2019-04-22T17:53:55.032Z,11.53
2019-04-22T17:58:58.761Z,10.77
2019-04-22T18:03:49.639Z,9.97
2019-04-22T18:09:04.949Z,10.50
2019-04-22T18:19:19.634Z,8.60
2019-04-22T18:24:20.013Z,8.43
2019-04-22T18:29:35.834Z,8.17
2019-04-22T18:34:35.054Z,7.80
2019-04-22T18:39:52.762Z,6.20
2019-04-22T18:45:06.807Z,6.63
2019-04-22T18:50:00.771Z,6.23
2019-04-22T18:55:07.269Z,6.30
2019-04-22T19:00:02.409Z,6.40
2019-04-22T19:05:17.318Z,5.80
2019-04-22T19:10:46.395Z,5.40
2019-04-22T19:15:47.173Z,6.23
2019-04-22T19:20:53.733Z,5.87
2019-04-22T19:25:46.949Z,6.47
2019-04-22T19:31:02.663Z,7.87
2019-04-22T19:36:10.972Z,9.63
2019-04-22T19:41:37.429Z,10.53
2019-04-22T19:46:35.306Z,8.03
2019-04-22T19:51:55.547Z,7.30
2019-04-22T19:56:42.819Z,8.03
2019-04-22T20:01:58.667Z,8.73
2019-04-22T20:07:09.903Z,9.40
2019-04-22T20:12:11.864Z,10.77
2019-04-22T20:17:30.058Z,11.47
2019-04-22T20:22:29.900Z,11.60
2019-04-22T20:27:36.509Z,10.73
2019-04-22T20:32:56.344Z,12.03
2019-04-22T20:38:08.923Z,12.33
2019-04-22T20:43:22.103Z,12.50
2019-04-22T20:48:09.215Z,13.73
2019-04-22T20:53:32.843Z,14.27
2019-04-22T20:58:34.316Z,12.97
2019-04-22T21:03:30.832Z,14.17
2019-04-22T21:08:51.409Z,13.53
2019-04-22T21:13:52.512Z,12.97
2019-04-22T21:18:58.183Z,13.60
2019-04-22T21:23:59.457Z,12.90
2019-04-22T21:29:09.859Z,12.43
2019-04-22T21:34:19.552Z,12.87
2019-04-22T21:39:26.340Z,12.83
2019-04-22T21:44:36.889Z,13.60
2019-04-22T21:49:45.884Z,14.07
2019-04-22T21:54:57.392Z,14.03
2019-04-22T21:59:57.957Z,14.17
2019-04-22T22:04:58.989Z,14.17
2019-04-22T22:10:09.171Z,13.47
2019-04-22T22:15:13.271Z,12.73
2019-04-22T22:20:14.618Z,13.47
2019-04-22T22:25:28.029Z,13.23
2019-04-22T22:35:43.953Z,13.63
2019-04-22T22:40:32.367Z,12.80
2019-04-22T22:45:43.786Z,11.70
2019-04-22T22:50:59.162Z,12.83
2019-04-22T22:56:10.455Z,12.17
2019-04-22T23:01:18.557Z,12.73
2019-04-22T23:06:29.293Z,11.90
2019-04-22T23:11:50.812Z,12.03
2019-04-22T23:16:28.178Z,11.30
2019-04-22T23:21:30.634Z,12.17
2019-04-22T23:26:48.523Z,11.73
2019-04-22T23:31:48.652Z,11.50
2019-04-22T23:36:55.607Z,11.93
2019-04-22T23:42:18.954Z,11.20
2019-04-22T23:47:12.177Z,11.87
2019-04-22T23:52:28.858Z,11.17
2019-04-22T23:57:33.306Z,11.13
